Time;durP1;ratioP1;P1;durP2;ratioP2;P2;SDS_P1;SDS_P2;PMS_P1;PMS_P2;Temp;Humidity;BMP_temperature;BMP_pressure;BME280_temperature;BME280_humidity;BME280_pressure;Samples;Min_cycle;Max_cycle;Signal;HPM_P1;HPM_P2
2023/09/11 00:01:31;;;;;;;4.57;4.18;;;;;;;24.75;65.72;101352.22;4985596;28;20035;-60
2023/09/11 00:03:57;;;;;;;5.03;4.63;;;;;;;24.75;65.65;101349.50;4985456;28;20388;-60
2023/09/11 00:06:23;;;;;;;7.68;4.95;;;;;;;24.73;65.43;101346.97;4985535;28;20421;-60
2023/09/11 00:08:48;;;;;;;4.57;4.22;;;;;;;24.74;65.69;101345.09;4985917;28;20089;-61
2023/09/11 00:11:13;;;;;;;4.75;4.30;;;;;;;24.73;65.64;101333.34;4987021;28;20480;-60
2023/09/11 00:13:39;;;;;;;5.05;4.57;;;;;;;24.73;65.38;101336.09;4985604;28;20131;-60
2023/09/11 00:16:04;;;;;;;4.90;4.50;;;;;;;24.74;65.38;101336.94;4985551;28;20045;-61
2023/09/11 00:18:30;;;;;;;4.85;4.35;;;;;;;24.73;65.56;101338.81;4985220;28;20053;-60
2023/09/11 00:20:55;;;;;;;4.70;4.32;;;;;;;24.73;65.61;101333.34;4985353;28;20053;-60
2023/09/11 00:23:21;;;;;;;4.50;4.20;;;;;;;24.74;65.44;101336.94;4985708;28;20141;-60
2023/09/11 00:25:46;;;;;;;4.90;4.40;;;;;;;24.73;65.66;101332.50;4990523;28;20126;-60
2023/09/11 00:28:12;;;;;;;4.75;4.35;;;;;;;24.72;65.52;101337.09;4986559;28;20034;-60
2023/09/11 00:30:37;;;;;;;5.13;4.72;;;;;;;24.71;65.39;101337.28;4985838;28;20465;-60
2023/09/11 00:33:03;;;;;;;4.75;4.32;;;;;;;24.71;65.42;101337.28;4986199;28;20035;-61
2023/09/11 00:35:29;;;;;;;5.10;4.70;;;;;;;24.71;65.47;101331.81;4983810;28;20037;-60
2023/09/11 00:37:54;;;;;;;4.88;4.47;;;;;;;24.72;65.63;101328.09;4986804;28;20054;-60
2023/09/11 00:40:19;;;;;;;4.63;4.32;;;;;;;24.70;65.18;101325.53;4989459;28;20033;-60
2023/09/11 00:42:45;;;;;;;5.30;4.90;;;;;;;24.71;65.44;101329.09;4985797;28;20038;-60
2023/09/11 00:45:11;;;;;;;4.72;4.32;;;;;;;24.71;65.68;101334.53;4985244;28;20038;-60
2023/09/11 00:47:43;;;;;;;4.65;4.30;;;;;;;24.70;65.58;101330.16;4984187;28;20117;-60
2023/09/11 00:50:10;;;;;;;5.07;4.68;;;;;;;24.69;65.33;101329.28;4985200;28;20035;-60
2023/09/11 00:52:36;;;;;;;4.78;4.38;;;;;;;24.69;65.60;101325.72;4985262;28;20034;-60
2023/09/11 00:55:02;;;;;;;5.18;4.55;;;;;;;24.68;65.48;101333.03;4985589;28;20085;-61
2023/09/11 00:57:28;;;;;;;5.20;4.80;;;;;;;24.68;65.40;101324.03;4984380;28;20055;-60
2023/09/11 00:59:54;;;;;;;4.95;4.55;;;;;;;24.68;65.31;101326.75;4985645;28;20038;-60
2023/09/11 01:02:20;;;;;;;4.45;4.05;;;;;;;24.67;65.69;101320.44;4986063;28;20060;-60
2023/09/11 01:04:46;;;;;;;5.03;4.45;;;;;;;24.67;65.38;101319.59;4985287;28;20073;-60
2023/09/11 01:07:13;;;;;;;4.60;4.20;;;;;;;24.67;65.18;101322.31;4984613;28;20053;-60
2023/09/11 01:09:39;;;;;;;4.90;4.50;;;;;;;24.66;65.30;101318.75;4984902;28;20082;-60
2023/09/11 01:12:05;;;;;;;4.47;4.07;;;;;;;24.66;65.57;101313.31;4984775;28;20125;-60
2023/09/11 01:14:32;;;;;;;4.88;4.47;;;;;;;24.65;65.47;101308.03;4984812;28;20122;-60
2023/09/11 01:17:00;;;;;;;4.70;4.30;;;;;;;24.66;65.27;101312.47;4985119;28;20054;-61
2023/09/11 01:19:59;;;;;;;4.70;4.30;;;;;;;24.68;65.38;101315.88;4985405;28;20037;-61
2023/09/11 01:23:02;;;;;;;5.25;4.85;;;;;;;24.67;65.33;101323.16;4986244;28;20030;-60
2023/09/11 01:25:58;;;;;;;4.63;4.22;;;;;;;24.66;65.42;101320.63;4984572;28;20149;-60
2023/09/11 01:28:29;;;;;;;5.10;4.70;;;;;;;24.65;65.64;101321.66;4983936;28;20097;-60
2023/09/11 01:30:57;;;;;;;5.20;4.72;;;;;;;24.64;65.28;101315.38;4983619;28;20047;-60
2023/09/11 01:33:23;;;;;;;5.30;4.80;;;;;;;24.63;65.27;101310.94;4986227;28;20477;-60
2023/09/11 01:35:48;;;;;;;5.50;4.97;;;;;;;24.64;65.38;101314.53;4986203;28;20053;-60
2023/09/11 01:38:13;;;;;;;4.63;4.30;;;;;;;24.63;65.47;101312.81;4984077;28;20062;-60
2023/09/11 01:40:42;;;;;;;5.40;4.55;;;;;;;24.62;65.38;101309.25;4987584;28;20121;-60
2023/09/11 01:43:08;;;;;;;4.90;4.50;;;;;;;24.62;65.20;101311.97;4989091;28;20114;-60
2023/09/11 01:45:36;;;;;;;5.18;4.72;;;;;;;24.62;65.38;101308.38;4989169;28;20030;-60
2023/09/11 01:48:02;;;;;;;4.80;4.40;;;;;;;24.62;65.34;101317.44;4988373;28;20048;-61
2023/09/11 01:50:30;;;;;;;4.72;4.22;;;;;;;24.62;65.28;101311.09;4987879;28;20034;-60
2023/09/11 01:52:56;;;;;;;4.65;4.22;;;;;;;24.60;65.21;101311.31;4994227;28;20061;-60
2023/09/11 01:55:22;;;;;;;5.32;4.82;;;;;;;24.61;65.13;101309.44;4988465;28;20081;-60
2023/09/11 01:57:47;;;;;;;5.22;4.82;;;;;;;24.61;65.22;101309.44;4987224;28;20065;-60
2023/09/11 02:00:13;;;;;;;5.70;4.85;;;;;;;24.59;65.29;101305.00;4986809;28;20031;-60
2023/09/11 02:02:39;;;;;;;5.10;4.60;;;;;;;24.58;65.20;101300.59;4991862;28;20481;-60
2023/09/11 02:05:05;;;;;;;5.15;4.75;;;;;;;24.59;65.01;101305.00;4987970;28;20033;-60
2023/09/11 02:07:30;;;;;;;5.80;5.13;;;;;;;24.58;65.24;101294.31;4988130;28;20123;-60
2023/09/11 02:09:55;;;;;;;4.82;4.43;;;;;;;24.58;65.04;101306.03;4988590;28;20450;-61
2023/09/11 02:12:22;;;;;;;5.18;4.78;;;;;;;24.58;65.18;101300.59;4989024;28;20430;-60
2023/09/11 02:14:48;;;;;;;5.45;5.05;;;;;;;24.57;65.24;101298.88;4988604;28;20410;-60
2023/09/11 02:17:13;;;;;;;5.80;5.30;;;;;;;24.57;65.14;101293.44;4988612;28;20030;-60
2023/09/11 02:19:38;;;;;;;5.28;4.85;;;;;;;24.57;65.39;101298.88;4987246;28;20037;-60
2023/09/11 02:22:04;;;;;;;5.28;4.70;;;;;;;24.56;65.27;101291.75;4987305;28;20061;-61
2023/09/11 02:24:29;;;;;;;5.18;4.70;;;;;;;24.56;64.97;101280.00;4987606;28;20113;-60
2023/09/11 02:26:55;;;;;;;5.38;4.97;;;;;;;24.56;65.25;101285.44;4987018;28;20035;-60
2023/09/11 02:29:21;;;;;;;5.68;5.18;;;;;;;24.55;64.67;101284.59;4987661;28;20084;-60
2023/09/11 02:31:46;;;;;;;5.20;4.70;;;;;;;24.54;64.79;101282.94;4987470;28;20485;-60
2023/09/11 02:34:12;;;;;;;5.47;4.97;;;;;;;24.55;64.89;101278.31;4987356;28;20042;-60
2023/09/11 02:36:37;;;;;;;5.45;5.05;;;;;;;24.54;65.25;101277.47;4987488;28;20055;-60
2023/09/11 02:39:03;;;;;;;5.53;5.05;;;;;;;24.54;64.87;101282.94;4987964;28;20046;-60
2023/09/11 02:41:28;;;;;;;5.85;4.95;;;;;;;24.53;64.81;101278.50;4987118;28;20044;-60
2023/09/11 02:43:54;;;;;;;5.75;5.25;;;;;;;24.53;64.45;101283.94;4987189;28;20122;-60
2023/09/11 02:46:19;;;;;;;4.80;4.45;;;;;;;24.54;64.78;101279.34;4987996;28;20460;-60
2023/09/11 02:48:46;;;;;;;6.13;5.55;;;;;;;24.52;64.80;101282.25;4987753;28;20081;-60
2023/09/11 02:51:12;;;;;;;5.00;4.60;;;;;;;24.52;65.05;101284.97;4988141;28;20034;-60
2023/09/11 02:53:38;;;;;;;4.97;4.60;;;;;;;24.52;64.80;101278.66;4986207;28;20034;-60
2023/09/11 02:56:03;;;;;;;5.50;5.07;;;;;;;24.52;64.39;101286.84;4987297;28;20049;-60
2023/09/11 02:58:29;;;;;;;5.50;5.00;;;;;;;24.51;64.61;101277.81;4986589;28;20034;-60
2023/09/11 03:00:54;;;;;;;5.22;4.80;;;;;;;24.51;64.33;101275.09;4987037;28;20033;-60
2023/09/11 03:03:20;;;;;;;5.43;5.03;;;;;;;24.50;64.96;101276.13;4986512;28;20126;-60
2023/09/11 03:05:53;;;;;;;5.22;4.72;;;;;;;24.50;64.61;101276.13;4987055;28;20109;-60
2023/09/11 03:08:19;;;;;;;5.43;5.03;;;;;;;24.50;64.49;101273.41;4987162;28;20045;-60
2023/09/11 03:10:45;;;;;;;5.80;5.30;;;;;;;24.51;64.65;101266.06;4986487;28;20022;-60
2023/09/11 03:13:10;;;;;;;5.53;5.03;;;;;;;24.49;64.44;101266.25;4986214;28;20105;-60
2023/09/11 03:15:36;;;;;;;5.25;4.85;;;;;;;24.48;64.50;101261.81;4985802;28;20029;-60
2023/09/11 03:18:01;;;;;;;5.53;5.03;;;;;;;24.48;64.38;101253.66;4985795;28;20046;-60
2023/09/11 03:20:26;;;;;;;5.88;5.38;;;;;;;24.49;64.97;101257.25;4985361;28;20038;-61
2023/09/11 03:22:53;;;;;;;5.90;5.40;;;;;;;24.48;64.35;101248.19;4986279;28;20477;-60
2023/09/11 03:25:19;;;;;;;5.70;5.20;;;;;;;24.47;64.58;101257.41;4986866;28;20047;-61
2023/09/11 03:27:44;;;;;;;5.70;5.20;;;;;;;24.48;64.41;101250.91;4987958;28;20485;-60
2023/09/11 03:30:10;;;;;;;5.30;4.85;;;;;;;24.47;64.38;101249.25;4987832;28;20030;-60
2023/09/11 03:32:35;;;;;;;5.35;4.95;;;;;;;24.47;64.41;101242.97;4987596;28;20029;-61
2023/09/11 03:35:01;;;;;;;5.25;4.75;;;;;;;24.47;64.13;101246.53;4986729;28;20041;-60
2023/09/11 03:37:26;;;;;;;5.43;5.03;;;;;;;24.46;64.11;101242.09;4987066;28;20069;-60
2023/09/11 03:39:52;;;;;;;5.60;5.15;;;;;;;24.46;64.60;101247.53;4986923;28;20040;-60
2023/09/11 03:42:17;;;;;;;5.50;5.05;;;;;;;24.45;64.26;101243.13;4986456;28;20388;-60
2023/09/11 03:44:43;;;;;;;5.30;4.90;;;;;;;24.45;64.00;101237.69;4986349;28;20389;-60
2023/09/11 03:47:08;;;;;;;5.75;5.18;;;;;;;24.45;64.38;101239.56;4985523;28;20038;-60
2023/09/11 03:49:33;;;;;;;5.32;4.93;;;;;;;24.45;64.45;101236.84;4985301;28;20133;-61
2023/09/11 03:51:59;;;;;;;5.15;4.75;;;;;;;24.44;64.33;101233.25;4984400;28;20042;-63
2023/09/11 03:54:24;;;;;;;5.53;5.03;;;;;;;24.43;64.13;101236.16;4985765;28;20037;-60
2023/09/11 03:56:50;;;;;;;5.18;4.78;;;;;;;24.43;64.50;101226.13;4985522;28;20430;-60
2023/09/11 03:59:15;;;;;;;5.57;5.13;;;;;;;24.42;64.10;101218.16;4985463;28;20042;-60
2023/09/11 04:01:40;;;;;;;5.95;5.43;;;;;;;24.42;64.02;101221.72;4985590;28;20089;-60
2023/09/11 04:04:06;;;;;;;5.70;5.20;;;;;;;24.42;64.23;101215.44;4984851;28;20057;-60
2023/09/11 04:06:31;;;;;;;6.25;5.65;;;;;;;24.41;64.15;101220.03;4984951;28;20072;-60
2023/09/11 04:08:57;;;;;;;6.13;5.53;;;;;;;24.40;64.00;101212.88;4984968;28;20026;-60
2023/09/11 04:11:25;;;;;;;5.57;5.07;;;;;;;24.39;64.13;101211.19;4985748;28;20047;-60
2023/09/11 04:13:50;;;;;;;5.60;5.10;;;;;;;24.40;64.00;101210.16;4985874;28;20191;-60
2023/09/11 04:16:16;;;;;;;5.28;4.78;;;;;;;24.40;64.34;101212.88;4985832;28;20046;-60
2023/09/11 04:18:42;;;;;;;6.05;5.45;;;;;;;24.39;63.76;101212.03;4989236;28;20042;-60
2023/09/11 04:21:08;;;;;;;5.05;4.57;;;;;;;24.38;63.93;101198.59;4986374;28;20065;-60
2023/09/11 04:23:33;;;;;;;5.10;4.60;;;;;;;24.38;64.01;101206.78;4986539;28;20536;-60
2023/09/11 04:25:59;;;;;;;5.07;4.68;;;;;;;24.38;63.86;101198.59;4987276;28;20410;-60
2023/09/11 04:28:24;;;;;;;5.80;4.88;;;;;;;24.37;64.03;101205.94;4986921;28;20441;-60
2023/09/11 04:30:50;;;;;;;5.35;4.85;;;;;;;24.38;63.79;101195.88;4985854;28;20042;-60
2023/09/11 04:33:17;;;;;;;5.40;4.90;;;;;;;24.36;63.97;101203.38;4985299;28;20110;-60
2023/09/11 04:35:42;;;;;;;5.10;4.70;;;;;;;24.37;64.22;101199.66;4985334;28;20030;-60
2023/09/11 04:38:08;;;;;;;4.90;4.50;;;;;;;24.36;63.83;101192.50;4985336;28;20066;-60
2023/09/11 04:40:33;;;;;;;5.63;5.13;;;;;;;24.35;64.15;101191.66;4984897;28;20046;-60
2023/09/11 04:42:58;;;;;;;5.25;4.75;;;;;;;24.35;63.93;101191.66;4984754;28;20026;-60
2023/09/11 04:45:24;;;;;;;5.28;4.85;;;;;;;24.35;64.15;101197.09;4984385;28;20477;-60
2023/09/11 04:47:49;;;;;;;5.68;5.25;;;;;;;24.35;63.84;101199.81;4984108;28;20354;-60
2023/09/11 04:50:14;;;;;;;5.00;4.57;;;;;;;24.35;63.85;101204.41;4984169;28;20039;-60
2023/09/11 04:52:40;;;;;;;5.53;5.05;;;;;;;24.34;63.71;101206.28;4986192;28;20039;-60
2023/09/11 04:55:06;;;;;;;5.85;4.70;;;;;;;24.33;63.85;101201.00;4985840;28;20031;-61
2023/09/11 04:57:31;;;;;;;5.28;4.88;;;;;;;24.33;63.96;101212.75;4986047;28;20049;-61
2023/09/11 04:59:56;;;;;;;5.35;4.82;;;;;;;24.33;63.55;101209.16;4986207;28;20031;-60
2023/09/11 05:02:22;;;;;;;5.32;4.93;;;;;;;24.32;63.81;101202.88;4985397;28;20036;-60
2023/09/11 05:04:48;;;;;;;4.70;4.30;;;;;;;24.32;64.09;101207.50;4984685;28;20045;-60
2023/09/11 05:07:14;;;;;;;5.18;4.78;;;;;;;24.32;63.75;101210.22;4984620;28;20399;-60
2023/09/11 05:09:39;;;;;;;5.50;4.72;;;;;;;24.31;63.79;101206.66;4984481;28;20089;-60
2023/09/11 05:12:05;;;;;;;4.88;4.50;;;;;;;24.31;63.37;101200.34;4984447;28;20039;-60
2023/09/11 05:14:30;;;;;;;5.47;5.07;;;;;;;24.31;63.56;101208.50;4985407;28;20492;-60
2023/09/11 05:16:56;;;;;;;5.80;5.30;;;;;;;24.30;63.80;101213.13;4987661;28;20066;-60
2023/09/11 05:19:21;;;;;;;5.70;5.28;;;;;;;24.30;63.80;101220.44;4989047;28;20133;-60
2023/09/11 05:21:46;;;;;;;5.15;4.75;;;;;;;24.30;63.70;101212.28;4989486;28;20034;-60
2023/09/11 05:24:12;;;;;;;5.47;4.97;;;;;;;24.30;63.74;101206.84;4989077;28;20032;-61
2023/09/11 05:26:38;;;;;;;4.70;4.30;;;;;;;24.29;63.75;101216.00;4986683;28;20038;-60
2023/09/11 05:29:03;;;;;;;5.03;4.63;;;;;;;24.29;63.46;101213.28;4988433;28;20112;-61
2023/09/11 05:31:29;;;;;;;5.78;5.28;;;;;;;24.29;63.50;101221.44;4989797;28;20460;-60
2023/09/11 05:33:54;;;;;;;5.32;4.93;;;;;;;24.28;63.35;101220.59;4995445;28;20093;-60
2023/09/11 05:36:19;;;;;;;5.82;5.22;;;;;;;24.28;63.62;101217.88;4988886;28;20151;-60
2023/09/11 05:38:47;;;;;;;5.45;5.05;;;;;;;24.28;63.78;101225.22;4988385;28;20109;-60
2023/09/11 05:41:13;;;;;;;5.25;4.85;;;;;;;24.27;63.63;101218.91;4988283;28;20034;-60
2023/09/11 05:43:40;;;;;;;6.75;5.35;;;;;;;24.27;63.52;101227.06;4988528;28;20058;-61
2023/09/11 05:46:05;;;;;;;5.60;4.90;;;;;;;24.26;63.60;101225.38;4988274;28;20038;-60
2023/09/11 05:48:31;;;;;;;5.78;4.80;;;;;;;24.27;63.48;101227.06;4989000;28;20113;-60
2023/09/11 05:50:56;;;;;;;5.22;4.72;;;;;;;24.27;63.57;101231.66;4988606;28;20500;-63
2023/09/11 05:53:22;;;;;;;6.45;5.30;;;;;;;24.26;63.09;101228.09;4988491;28;20112;-60
2023/09/11 05:55:47;;;;;;;5.93;5.43;;;;;;;24.26;63.43;101235.44;4988534;28;20042;-60
2023/09/11 05:58:13;;;;;;;6.18;4.75;;;;;;;24.26;63.37;101235.44;4992202;28;20045;-59
2023/09/11 06:00:38;;;;;;;5.55;5.07;;;;;;;24.25;63.06;101240.00;4987146;28;20117;-60
2023/09/11 06:03:04;;;;;;;6.35;5.72;;;;;;;24.25;63.19;101239.16;4988819;28;20042;-60
2023/09/11 06:05:31;;;;;;;5.57;5.07;;;;;;;24.24;62.87;101237.47;4995065;28;20365;-60
2023/09/11 06:07:56;;;;;;;5.07;4.63;;;;;;;24.25;62.86;101241.88;4993060;28;20487;-59
2023/09/11 06:10:22;;;;;;;5.18;4.78;;;;;;;24.24;62.91;101242.91;4993614;28;20026;-59
2023/09/11 06:12:48;;;;;;;5.97;4.95;;;;;;;24.24;62.98;101249.22;4993711;28;20061;-59
2023/09/11 06:15:13;;;;;;;5.45;4.95;;;;;;;24.23;62.96;101252.94;4993911;28;20027;-59
2023/09/11 06:17:38;;;;;;;5.53;5.03;;;;;;;24.24;62.89;101242.91;4994858;28;20457;-59
2023/09/11 06:20:10;;;;;;;4.95;4.47;;;;;;;24.23;62.96;101247.50;4994535;28;20022;-60
2023/09/11 06:22:37;;;;;;;5.40;4.90;;;;;;;24.23;63.02;101247.50;4990278;28;20035;-59
2023/09/11 06:25:04;;;;;;;5.28;4.85;;;;;;;24.23;63.31;101242.06;4994216;28;20543;-59
2023/09/11 06:27:30;;;;;;;5.22;4.82;;;;;;;24.23;63.08;101242.06;4993183;28;20113;-59
2023/09/11 06:29:55;;;;;;;6.20;4.93;;;;;;;24.23;62.98;101244.78;4991973;28;20133;-59
2023/09/11 06:32:21;;;;;;;4.88;4.47;;;;;;;24.23;63.29;101246.66;4991907;28;20058;-59
2023/09/11 06:34:46;;;;;;;5.22;4.72;;;;;;;24.23;62.99;101247.50;4990731;28;20038;-59
2023/09/11 06:37:11;;;;;;;5.25;4.85;;;;;;;24.23;63.27;101243.94;4991877;28;20053;-59
2023/09/11 06:39:37;;;;;;;5.20;4.80;;;;;;;24.23;62.91;101238.50;4993962;28;20030;-60
2023/09/11 06:42:03;;;;;;;5.80;5.30;;;;;;;24.22;63.15;101251.25;4992785;28;20078;-60
2023/09/11 06:44:28;;;;;;;4.78;4.38;;;;;;;24.22;62.77;101256.72;4992353;28;20034;-60
2023/09/11 06:46:53;;;;;;;5.15;4.75;;;;;;;24.22;63.12;101251.25;4992536;28;20037;-60
2023/09/11 06:49:19;;;;;;;5.00;4.57;;;;;;;24.22;62.60;101251.25;4992441;28;20023;-60
2023/09/11 06:51:44;;;;;;;5.30;4.80;;;;;;;24.22;62.87;101253.13;4991989;28;20503;-59
2023/09/11 06:54:12;;;;;;;5.22;4.72;;;;;;;24.20;63.06;101248.72;4992117;28;20041;-59
2023/09/11 06:56:40;;;;;;;5.25;4.80;;;;;;;24.20;62.54;101254.16;4993493;28;20109;-59
2023/09/11 06:59:05;;;;;;;5.20;4.70;;;;;;;24.21;62.59;101252.28;4993796;28;20039;-60
2023/09/11 07:01:38;;;;;;;5.75;4.90;;;;;;;24.21;62.66;101246.84;4994356;28;20034;-60
2023/09/11 07:04:10;;;;;;;5.35;4.50;;;;;;;24.22;63.07;101253.13;4988498;28;20030;-60
2023/09/11 07:06:37;;;;;;;5.20;4.80;;;;;;;24.22;62.83;101258.56;4992912;28;20026;-59
2023/09/11 07:09:04;;;;;;;5.18;4.78;;;;;;;24.21;62.52;101244.13;4993650;28;20109;-59
2023/09/11 07:11:29;;;;;;;5.20;4.80;;;;;;;24.20;62.86;101245.16;4987094;28;20085;-59
2023/09/11 07:13:55;;;;;;;5.03;4.63;;;;;;;24.21;62.55;101244.13;4987058;28;20033;-59
2023/09/11 07:16:21;;;;;;;5.13;4.63;;;;;;;24.20;62.52;101243.28;4986735;28;20342;-60
2023/09/11 07:18:46;;;;;;;5.03;4.60;;;;;;;24.20;62.33;101240.56;4985854;28;20037;-59
2023/09/11 07:21:11;;;;;;;5.20;4.80;;;;;;;24.21;62.39;101244.13;4988373;28;20034;-60
2023/09/11 07:23:37;;;;;;;5.25;4.85;;;;;;;24.20;62.46;101243.28;4985826;28;20035;-60
2023/09/11 07:26:02;;;;;;;4.70;4.30;;;;;;;24.20;62.30;101237.00;4986219;28;20042;-61
2023/09/11 07:28:29;;;;;;;5.45;4.88;;;;;;;24.19;62.40;101238.84;4986233;28;20504;-61
2023/09/11 07:30:54;;;;;;;4.90;4.50;;;;;;;24.20;62.18;101237.00;4988299;28;20042;-61
2023/09/11 07:33:20;;;;;;;5.05;4.40;;;;;;;24.20;62.38;101237.00;4985793;28;20042;-61
2023/09/11 07:35:46;;;;;;;4.72;4.22;;;;;;;24.20;62.92;101243.28;4989112;28;20045;-60
2023/09/11 07:38:11;;;;;;;4.90;4.43;;;;;;;24.20;62.62;101245.16;4991416;28;20385;-60
2023/09/11 07:40:38;;;;;;;5.22;4.72;;;;;;;24.21;62.67;101244.13;4991565;28;20049;-61
2023/09/11 07:43:04;;;;;;;4.88;4.47;;;;;;;24.20;62.46;101247.88;4991694;28;20036;-61
2023/09/11 07:45:29;;;;;;;6.10;5.13;;;;;;;24.20;62.57;101246.00;4992017;28;20034;-60
2023/09/11 07:47:55;;;;;;;4.88;4.45;;;;;;;24.20;62.31;101248.72;4991459;28;20034;-60
2023/09/11 07:50:20;;;;;;;4.65;4.25;;;;;;;24.20;62.54;101254.16;4989916;28;20053;-60
2023/09/11 07:52:45;;;;;;;4.47;4.07;;;;;;;24.20;62.57;101265.03;4991527;28;20037;-59
2023/09/11 07:55:11;;;;;;;4.50;4.10;;;;;;;24.20;62.43;101264.19;4986804;28;20031;-59
2023/09/11 07:57:40;;;;;;;4.68;4.28;;;;;;;24.20;62.53;101262.31;4987488;28;20037;-60
2023/09/11 08:00:06;;;;;;;5.00;4.43;;;;;;;24.20;62.17;101262.31;4985673;28;20030;-60
2023/09/11 08:02:33;;;;;;;4.65;4.25;;;;;;;24.20;62.41;101266.94;4992067;28;20508;-59
2023/09/11 08:04:58;;;;;;;6.70;5.05;;;;;;;24.20;62.32;101266.94;4984481;28;20033;-59
2023/09/11 08:07:23;;;;;;;5.57;5.07;;;;;;;24.20;62.45;101273.22;4984280;28;20496;-59
2023/09/11 08:09:49;;;;;;;5.00;4.60;;;;;;;24.20;62.25;101275.09;4985267;28;20476;-59
2023/09/11 08:12:15;;;;;;;5.70;5.20;;;;;;;24.21;62.39;101282.22;4984770;28;20456;-59
2023/09/11 08:14:40;;;;;;;6.30;5.20;;;;;;;24.20;62.22;101277.81;4984980;28;20038;-60
2023/09/11 08:17:06;;;;;;;4.75;4.35;;;;;;;24.20;62.39;101278.66;4987081;28;20389;-60
2023/09/11 08:19:31;;;;;;;4.88;4.38;;;;;;;24.20;62.13;101270.47;4985636;28;20070;-60
2023/09/11 08:21:56;;;;;;;5.05;4.65;;;;;;;24.20;61.74;101275.94;4989278;28;20038;-61
2023/09/11 08:24:23;;;;;;;5.30;4.80;;;;;;;24.20;62.37;101280.53;4990520;28;20030;-61
2023/09/11 08:26:48;;;;;;;5.38;4.65;;;;;;;24.21;62.00;101282.22;4992227;28;20338;-60
2023/09/11 08:29:15;;;;;;;5.95;5.45;;;;;;;24.21;61.97;101276.75;4992258;28;20030;-62
2023/09/11 08:31:41;;;;;;;5.03;4.63;;;;;;;24.20;61.94;101275.94;4992037;28;20396;-60
2023/09/11 08:34:07;;;;;;;6.13;5.00;;;;;;;24.22;61.82;101277.59;4990443;28;20088;-60
2023/09/11 08:36:32;;;;;;;5.57;5.05;;;;;;;24.20;61.68;101275.94;4991965;28;20026;-60
2023/09/11 08:38:58;;;;;;;5.43;4.93;;;;;;;24.22;61.77;101278.47;4992454;28;20061;-60
2023/09/11 08:41:24;;;;;;;5.78;5.20;;;;;;;24.22;61.91;101274.88;4990497;28;20034;-60
2023/09/11 08:43:51;;;;;;;5.75;5.25;;;;;;;24.22;61.63;101269.44;4985528;28;20083;-59
2023/09/11 08:46:16;;;;;;;6.93;5.47;;;;;;;24.22;61.76;101272.16;4986838;28;20053;-59
2023/09/11 08:48:48;;;;;;;5.90;5.07;;;;;;;24.22;61.72;101278.47;4987034;28;20034;-60
2023/09/11 08:51:24;;;;;;;5.78;5.18;;;;;;;24.23;61.79;101276.59;4987554;28;20049;-60
2023/09/11 08:53:52;;;;;;;5.03;4.63;;;;;;;24.22;61.62;101273.03;4992473;28;20040;-60
2023/09/11 08:56:17;;;;;;;5.93;5.32;;;;;;;24.23;61.59;101280.16;4989898;28;20082;-60
2023/09/11 08:58:43;;;;;;;5.38;4.88;;;;;;;24.23;61.84;101279.31;4989398;28;20112;-60
2023/09/11 09:01:10;;;;;;;4.97;4.53;;;;;;;24.23;61.63;101279.31;4989375;28;20026;-61
2023/09/11 09:03:37;;;;;;;5.07;4.68;;;;;;;24.23;62.01;101282.88;4990580;28;20396;-60
2023/09/11 09:06:04;;;;;;;4.97;4.57;;;;;;;24.23;61.53;101273.88;4990273;28;20491;-60
2023/09/11 09:08:30;;;;;;;5.88;4.75;;;;;;;24.23;61.93;101279.31;4990802;28;20057;-60
2023/09/11 09:10:56;;;;;;;5.13;4.65;;;;;;;24.24;61.91;101275.56;4994425;28;20429;-60
2023/09/11 09:13:22;;;;;;;4.88;4.47;;;;;;;24.23;61.61;101274.72;4989459;28;20034;-60
2023/09/11 09:15:48;;;;;;;6.15;5.25;;;;;;;24.24;61.90;101270.09;4990181;28;20018;-60
2023/09/11 09:18:13;;;;;;;5.72;4.80;;;;;;;24.24;61.91;101267.38;4989281;28;20392;-60
2023/09/11 09:20:39;;;;;;;5.18;4.63;;;;;;;24.26;61.60;101276.25;4990236;28;20037;-60
2023/09/11 09:23:06;;;;;;;5.35;4.85;;;;;;;24.24;61.47;101275.56;4989639;28;20042;-60
2023/09/11 09:25:31;;;;;;;6.45;5.20;;;;;;;24.25;61.35;101277.25;4988257;28;20329;-60
2023/09/11 09:27:58;;;;;;;5.22;4.72;;;;;;;24.25;61.60;101271.81;4994415;28;20037;-60
2023/09/11 09:30:25;;;;;;;5.07;4.63;;;;;;;24.24;61.73;101278.28;4989837;28;20046;-60
2023/09/11 09:32:52;;;;;;;6.13;5.03;;;;;;;24.24;61.56;101275.56;4989449;28;20037;-60
2023/09/11 09:35:20;;;;;;;5.60;5.10;;;;;;;24.25;61.86;101282.69;4996162;28;20468;-60
2023/09/11 09:37:50;;;;;;;5.72;5.20;;;;;;;24.26;61.83;101289.84;4995567;28;20046;-59
2023/09/11 09:40:30;;;;;;;6.90;4.87;;;;;;;24.28;61.64;101287.81;4994107;28;20471;-60
2023/09/11 09:43:00;;;;;;;5.35;4.93;;;;;;;24.27;61.83;101286.09;4993849;28;20037;-59
2023/09/11 09:45:35;;;;;;;5.18;4.78;;;;;;;24.27;61.62;101280.66;4993683;28;20038;-60
2023/09/11 09:48:05;;;;;;;5.30;4.80;;;;;;;24.27;61.84;101277.94;4995855;28;20041;-59
2023/09/11 09:50:50;;;;;;;5.15;4.75;;;;;;;24.28;61.65;101276.91;4994789;28;20065;-59
2023/09/11 09:53:27;;;;;;;7.05;4.90;;;;;;;24.29;61.61;101284.03;4992550;28;20018;-59
2023/09/11 09:55:55;;;;;;;5.07;4.68;;;;;;;24.28;61.76;101282.38;4994675;28;20034;-60
2023/09/11 09:58:24;;;;;;;4.85;4.35;;;;;;;24.28;61.93;101274.19;4989624;28;20038;-60
2023/09/11 10:00:57;;;;;;;5.93;4.65;;;;;;;24.28;61.74;101276.91;4988222;28;20034;-61
2023/09/11 10:03:23;;;;;;;4.95;4.55;;;;;;;24.28;61.76;101271.47;4998450;28;20038;-61
2023/09/11 10:05:51;;;;;;;5.07;4.57;;;;;;;24.27;61.64;101273.31;4988485;28;20461;-60
2023/09/11 10:08:17;;;;;;;5.55;5.05;;;;;;;24.29;61.85;101275.88;4988210;28;20038;-60
2023/09/11 10:10:42;;;;;;;5.60;5.10;;;;;;;24.29;61.99;101275.88;4988511;28;20053;-60
2023/09/11 10:13:12;;;;;;;5.18;4.68;;;;;;;24.29;61.72;101278.59;4987411;28;20034;-60
2023/09/11 10:15:40;;;;;;;5.17;4.77;;;;;;;24.30;62.10;101274.88;4990117;28;20503;-60
2023/09/11 10:18:07;;;;;;;5.53;5.03;;;;;;;24.29;61.80;101274.00;4990613;28;20122;-60
2023/09/11 10:20:33;;;;;;;5.78;4.43;;;;;;;24.30;62.03;101275.72;4987268;28;20030;-60
2023/09/11 10:23:04;;;;;;;5.00;4.60;;;;;;;24.30;62.14;101278.44;4987738;28;20038;-60
2023/09/11 10:25:37;;;;;;;5.20;4.70;;;;;;;24.31;61.91;101276.53;4987729;28;20034;-60
2023/09/11 10:28:05;;;;;;;4.70;4.30;;;;;;;24.31;61.86;101276.53;4987672;28;20392;-60
2023/09/11 10:31:03;;;;;;;5.13;4.72;;;;;;;24.35;62.02;101275.16;4987360;28;20037;-60
2023/09/11 10:33:30;;;;;;;5.10;4.63;;;;;;;24.31;61.87;101269.25;4981314;28;20041;-60
2023/09/11 10:35:59;;;;;;;4.97;4.47;;;;;;;24.31;61.75;101266.53;4987125;28;20064;-60
2023/09/11 10:38:31;;;;;;;4.93;4.53;;;;;;;24.32;61.88;101261.94;4987822;28;20338;-60
2023/09/11 10:41:01;;;;;;;5.55;5.05;;;;;;;24.33;62.12;101260.88;4986642;28;20081;-60
2023/09/11 10:43:27;;;;;;;4.88;4.47;;;;;;;24.33;62.17;101255.44;4986961;28;20069;-60
2023/09/11 10:45:52;;;;;;;5.05;4.65;;;;;;;24.34;62.04;101259.88;4987011;28;20065;-60
2023/09/11 10:48:31;;;;;;;5.15;4.70;;;;;;;24.34;62.13;101263.44;4986866;28;20043;-60
2023/09/11 10:50:58;;;;;;;5.63;4.40;;;;;;;24.34;62.08;101259.88;4987944;28;20031;-60
2023/09/11 10:53:31;;;;;;;4.43;4.03;;;;;;;24.34;62.07;101260.72;4986898;28;20034;-60
2023/09/11 10:55:57;;;;;;;5.43;4.93;;;;;;;24.35;62.18;101258.81;4991009;28;20381;-60
2023/09/11 10:58:25;;;;;;;4.68;4.28;;;;;;;24.34;61.99;101248.97;4992271;28;20425;-60
2023/09/11 11:00:55;;;;;;;5.68;4.88;;;;;;;24.35;62.23;101261.56;4992686;28;20117;-60
2023/09/11 11:03:24;;;;;;;5.90;5.17;;;;;;;24.36;62.02;101249.66;4992915;28;20385;-60
2023/09/11 11:05:52;;;;;;;5.22;4.82;;;;;;;24.35;62.02;101248.81;4993169;28;20477;-60
2023/09/11 11:08:17;;;;;;;4.80;4.40;;;;;;;24.36;62.44;101250.50;4992534;28;20081;-60
2023/09/11 11:10:47;;;;;;;4.55;4.15;;;;;;;24.38;62.13;101244.88;4992692;28;20407;-60
2023/09/11 11:13:12;;;;;;;4.88;4.47;;;;;;;24.38;62.11;101244.88;4993128;28;20392;-60
2023/09/11 11:15:37;;;;;;;5.60;4.82;;;;;;;24.38;62.10;101250.31;4992410;28;20057;-61
2023/09/11 11:18:06;;;;;;;5.28;4.78;;;;;;;24.38;62.46;101251.16;4992712;28;20031;-60
2023/09/11 11:20:33;;;;;;;4.35;3.95;;;;;;;24.38;62.47;101251.16;4992328;28;20081;-60
2023/09/11 11:23:12;;;;;;;5.35;4.85;;;;;;;24.40;62.54;101256.44;4992063;28;20061;-61